Karnes City, Texas
Current Conditions -  °F | °C
As of 3:15 AM on Wednesday 22 Oct 2014 (Local Time) from KBEA Reporting Station
Clear Clear  
Wind Chill: 65°   Ceiling: Unl
Heat Index: 65°   Visibility: 10mi
Dew Point: 60°   Wind: 7mph
Humidity: 83%   Direction: 50°NE
Pressure: 30"   Gusts: NA
Location:  28.88°N, 97.9°W
Report Text: KBEA 220815Z AUTO 05006KT 10SM CLR 19/16 A3000 RMK AO2 T01850155
Loading
Personal Weather Stations






























Interactive Weather Map
Tropical Storm Tracking
New forecast layout! Learn more

10-Day Weather Forecast

Advertisements
Track Severe Weather on mobile